createdAt,value
2022-07-31T00:01:43.630Z,18.36
2022-07-31T00:06:47.825Z,18.48
2022-07-31T00:11:50.623Z,18.75
2022-07-31T00:16:53.473Z,18.73
2022-07-31T00:21:58.583Z,18.77
2022-07-31T00:27:01.873Z,18.75
2022-07-31T00:32:05.326Z,18.56
2022-07-31T00:37:09.993Z,18.54
2022-07-31T00:42:18.280Z,18.58
2022-07-31T00:47:23.969Z,18.68
2022-07-31T00:52:29.923Z,18.57
2022-07-31T00:57:32.821Z,18.51
2022-07-31T01:02:35.648Z,18.45
2022-07-31T01:07:39.864Z,18.43
2022-07-31T01:12:53.833Z,18.15
2022-07-31T01:17:57.909Z,17.89
2022-07-31T01:23:25.968Z,17.88
2022-07-31T01:29:01.723Z,17.89
2022-07-31T01:34:12.171Z,17.93
2022-07-31T01:39:15.109Z,17.91
2022-07-31T01:44:21.278Z,17.71
2022-07-31T01:49:24.930Z,17.63
2022-07-31T01:54:29.369Z,17.60
2022-07-31T01:59:35.517Z,17.57
2022-07-31T02:04:47.043Z,17.54
2022-07-31T02:09:57.996Z,17.49
2022-07-31T02:15:09.816Z,17.38
2022-07-31T02:20:16.783Z,17.25
2022-07-31T02:25:19.637Z,17.15
2022-07-31T02:30:24.996Z,17.06
2022-07-31T02:35:28.108Z,16.91
2022-07-31T02:40:31.580Z,16.90
2022-07-31T02:45:36.137Z,16.95
2022-07-31T02:50:40.750Z,17.02
2022-07-31T02:55:45.265Z,16.93
2022-07-31T03:00:58.620Z,16.81
2022-07-31T03:06:01.665Z,16.80
2022-07-31T03:11:04.812Z,16.70
2022-07-31T03:16:11.816Z,16.58
2022-07-31T03:21:14.913Z,16.58
2022-07-31T03:26:18.657Z,16.48
2022-07-31T03:31:23.021Z,16.42
2022-07-31T03:36:26.276Z,16.34
2022-07-31T03:41:29.132Z,16.38
2022-07-31T03:46:33.484Z,16.43
2022-07-31T03:51:36.647Z,16.44
2022-07-31T03:56:41.984Z,16.52
2022-07-31T04:01:57.686Z,16.64
2022-07-31T04:07:27.819Z,16.79
2022-07-31T04:12:30.677Z,16.88
2022-07-31T04:17:34.909Z,16.97
2022-07-31T04:22:37.734Z,17.08
2022-07-31T04:27:48.194Z,17.12
2022-07-31T04:32:53.524Z,17.12
2022-07-31T04:37:58.610Z,17.23
2022-07-31T04:43:02.755Z,17.39
2022-07-31T04:48:07.689Z,17.59
2022-07-31T04:53:10.672Z,17.72
2022-07-31T04:58:16.273Z,17.77
2022-07-31T05:03:20.469Z,17.80
2022-07-31T05:08:23.423Z,17.76
2022-07-31T05:13:26.541Z,17.93
2022-07-31T05:23:51.931Z,18.22
2022-07-31T05:29:13.265Z,18.29
2022-07-31T05:34:17.440Z,18.39
2022-07-31T05:39:20.295Z,18.33
2022-07-31T05:44:49.022Z,18.26
2022-07-31T05:49:53.165Z,18.36
2022-07-31T05:54:57.817Z,18.40
2022-07-31T06:00:33.086Z,18.58
2022-07-31T06:05:38.020Z,18.80
2022-07-31T06:10:40.816Z,19.08
2022-07-31T06:15:49.039Z,19.26
2022-07-31T06:20:53.609Z,19.47
2022-07-31T06:25:56.910Z,19.81
2022-07-31T06:30:59.743Z,19.76
2022-07-31T06:36:04.361Z,19.90
2022-07-31T06:41:34.503Z,20.15
2022-07-31T06:46:57.102Z,20.13
2022-07-31T06:52:19.263Z,20.25
2022-07-31T06:57:22.097Z,20.35
2022-07-31T07:02:25.742Z,20.43
2022-07-31T07:07:31.771Z,20.27
2022-07-31T07:12:35.446Z,20.53
2022-07-31T07:17:38.269Z,20.65
2022-07-31T07:22:49.306Z,20.85
2022-07-31T07:28:12.135Z,20.87
2022-07-31T07:33:18.990Z,21.07
2022-07-31T07:38:43.193Z,21.42
2022-07-31T07:43:48.733Z,21.43
2022-07-31T07:49:05.700Z,21.81
2022-07-31T07:54:38.909Z,22.38
2022-07-31T08:00:01.141Z,22.97
2022-07-31T08:05:19.314Z,22.82
2022-07-31T08:10:23.692Z,22.55
2022-07-31T08:15:32.324Z,22.79
2022-07-31T08:20:46.508Z,23.32
2022-07-31T08:25:51.548Z,23.61
2022-07-31T08:30:55.055Z,23.99
2022-07-31T08:36:00.789Z,24.23
2022-07-31T08:41:05.307Z,25.07
2022-07-31T08:46:09.240Z,25.46
2022-07-31T08:51:16.797Z,25.55
2022-07-31T08:56:46.309Z,25.65
2022-07-31T09:01:51.293Z,25.04
2022-07-31T09:06:56.841Z,24.84
2022-07-31T09:12:01.418Z,24.91
2022-07-31T09:17:33.468Z,24.78
2022-07-31T09:22:36.470Z,24.42
2022-07-31T09:27:41.928Z,25.21
2022-07-31T09:32:45.958Z,24.73
2022-07-31T09:37:56.302Z,24.50
2022-07-31T09:43:24.574Z,24.30
2022-07-31T09:48:29.853Z,24.47
2022-07-31T09:53:43.759Z,24.86
2022-07-31T09:59:08.874Z,24.85
2022-07-31T10:04:17.753Z,24.86
2022-07-31T10:09:22.731Z,25.09
2022-07-31T10:14:51.778Z,24.87
2022-07-31T10:19:59.459Z,24.65
2022-07-31T10:25:25.508Z,25.52
2022-07-31T10:30:30.828Z,26.09
2022-07-31T10:35:44.285Z,26.07
2022-07-31T10:41:25.203Z,27.10
2022-07-31T10:46:31.124Z,26.81
2022-07-31T10:51:53.826Z,26.38
2022-07-31T10:57:23.217Z,26.00
2022-07-31T11:02:50.437Z,25.18
2022-07-31T11:08:13.077Z,24.78
2022-07-31T11:13:33.641Z,25.29
2022-07-31T11:18:59.741Z,25.17
2022-07-31T11:24:13.523Z,24.88
2022-07-31T11:30:01.218Z,24.97
2022-07-31T11:34:54.096Z,25.33
2022-07-31T11:39:58.145Z,25.72
2022-07-31T11:45:11.296Z,26.90
2022-07-31T11:50:16.657Z,26.62
2022-07-31T11:55:19.504Z,26.46
2022-07-31T12:00:26.691Z,26.44
2022-07-31T12:05:54.833Z,26.44
2022-07-31T12:10:59.814Z,25.88
2022-07-31T12:16:05.141Z,25.02
2022-07-31T12:21:10.035Z,24.65
2022-07-31T12:26:22.133Z,24.86
2022-07-31T12:31:24.773Z,25.20
2022-07-31T12:36:28.716Z,24.44
2022-07-31T12:41:32.523Z,25.34
2022-07-31T12:46:37.009Z,24.85
2022-07-31T12:51:46.342Z,24.87
2022-07-31T12:56:49.789Z,24.93
2022-07-31T13:01:52.647Z,24.89
2022-07-31T13:06:56.956Z,25.28
2022-07-31T13:11:59.801Z,25.12
2022-07-31T13:17:02.874Z,24.15
2022-07-31T13:22:07.568Z,24.75
2022-07-31T13:27:10.352Z,24.17
2022-07-31T13:32:13.217Z,24.15
2022-07-31T13:37:17.368Z,24.40
2022-07-31T13:42:20.373Z,23.55
2022-07-31T13:47:23.671Z,23.72
2022-07-31T13:52:28.428Z,22.96
2022-07-31T13:57:31.265Z,23.28
2022-07-31T14:02:34.073Z,22.92
2022-07-31T14:07:45.040Z,23.13
2022-07-31T14:12:51.351Z,22.60
2022-07-31T14:17:54.151Z,22.81
2022-07-31T14:22:58.490Z,22.67
2022-07-31T14:28:01.340Z,22.89
2022-07-31T14:33:04.659Z,23.04
2022-07-31T14:38:09.005Z,22.85
2022-07-31T14:43:12.569Z,23.25
2022-07-31T14:48:16.005Z,23.37
2022-07-31T14:53:20.527Z,21.36
2022-07-31T14:58:23.353Z,20.12
2022-07-31T15:03:26.137Z,19.31
2022-07-31T15:08:30.321Z,19.53
2022-07-31T15:13:36.058Z,19.81
2022-07-31T15:18:41.681Z,20.20
2022-07-31T15:23:45.876Z,20.58
2022-07-31T15:28:48.752Z,20.89
2022-07-31T15:33:51.685Z,21.17
2022-07-31T15:38:55.916Z,21.56
2022-07-31T15:43:59.215Z,21.79
2022-07-31T15:49:02.878Z,21.88
2022-07-31T15:54:07.226Z,21.96
2022-07-31T15:59:10.061Z,22.37
2022-07-31T16:04:16.448Z,23.12
2022-07-31T16:09:23.917Z,23.75
2022-07-31T16:14:26.810Z,23.89
2022-07-31T16:19:29.872Z,23.63
2022-07-31T16:24:38.148Z,23.41
2022-07-31T16:29:59.962Z,23.10
2022-07-31T16:35:03.813Z,24.48
2022-07-31T16:40:10.067Z,24.35
2022-07-31T16:45:32.486Z,23.52
2022-07-31T16:50:35.408Z,23.57
2022-07-31T16:56:01.031Z,23.74
2022-07-31T17:01:04.043Z,24.03
2022-07-31T17:06:07.161Z,24.31
2022-07-31T17:11:11.332Z,24.31
2022-07-31T17:16:14.230Z,23.69
2022-07-31T17:21:17.101Z,23.34
2022-07-31T17:26:22.272Z,23.37
2022-07-31T17:31:25.198Z,23.20
2022-07-31T17:36:28.377Z,23.06
2022-07-31T17:41:32.640Z,22.92
2022-07-31T17:46:36.706Z,22.72
2022-07-31T17:51:57.834Z,22.16
2022-07-31T17:57:05.571Z,21.77
2022-07-31T18:02:08.705Z,21.08
2022-07-31T18:07:12.271Z,21.44
2022-07-31T18:12:17.004Z,20.82
2022-07-31T18:17:20.433Z,19.86
2022-07-31T18:22:23.311Z,19.28
2022-07-31T18:27:27.614Z,19.49
2022-07-31T18:32:31.054Z,19.05
2022-07-31T18:37:34.001Z,18.75
2022-07-31T18:42:38.173Z,19.38
2022-07-31T18:47:41.088Z,19.27
2022-07-31T18:52:44.354Z,19.44
2022-07-31T18:57:48.642Z,19.19
2022-07-31T19:02:51.497Z,19.17
2022-07-31T19:07:54.341Z,19.11
2022-07-31T19:12:58.493Z,19.20
2022-07-31T19:18:02.152Z,19.17
2022-07-31T19:23:06.157Z,18.96
2022-07-31T19:28:16.731Z,18.85
2022-07-31T19:33:19.810Z,19.08
2022-07-31T19:38:22.666Z,18.74
2022-07-31T19:43:26.940Z,18.79
2022-07-31T19:48:29.785Z,18.92
2022-07-31T19:53:33.041Z,19.10
2022-07-31T19:58:38.283Z,19.07
2022-07-31T20:03:41.541Z,19.12
2022-07-31T20:08:44.514Z,18.80
2022-07-31T20:13:48.742Z,18.85
2022-07-31T20:18:51.890Z,18.88
2022-07-31T20:23:56.536Z,18.85
2022-07-31T20:29:00.728Z,19.11
2022-07-31T20:40:54.675Z,18.23
2022-07-31T20:46:00.125Z,18.51
2022-07-31T20:51:04.549Z,18.47
2022-07-31T20:56:07.401Z,18.17
2022-07-31T21:01:11.600Z,18.32
2022-07-31T21:06:14.571Z,18.63
2022-07-31T21:11:17.290Z,18.71
2022-07-31T21:16:21.430Z,18.61
2022-07-31T21:21:24.222Z,18.71
2022-07-31T21:26:28.353Z,18.40
2022-07-31T21:31:33.016Z,18.25
2022-07-31T21:36:36.580Z,18.59
2022-07-31T21:41:39.631Z,18.39
2022-07-31T21:46:50.561Z,18.41
2022-07-31T21:51:55.273Z,18.43
2022-07-31T21:56:58.022Z,18.12
2022-07-31T22:02:02.438Z,18.17
2022-07-31T22:07:22.959Z,18.10
2022-07-31T22:12:25.981Z,18.14
2022-07-31T22:17:30.229Z,18.35
2022-07-31T22:22:33.658Z,18.09
2022-07-31T22:27:56.509Z,18.05
2022-07-31T22:33:01.518Z,18.06
2022-07-31T22:38:04.601Z,18.09
2022-07-31T22:43:08.326Z,18.20
2022-07-31T22:48:32.833Z,18.29
2022-07-31T22:53:36.175Z,18.06
2022-07-31T22:58:39.016Z,18.31
2022-07-31T23:03:43.158Z,18.35
2022-07-31T23:08:46.004Z,17.98
2022-07-31T23:13:53.139Z,18.27
2022-07-31T23:18:57.334Z,18.18
2022-07-31T23:24:00.304Z,17.89
2022-07-31T23:29:03.236Z,17.92
2022-07-31T23:34:07.403Z,17.72
2022-07-31T23:39:11.683Z,17.98
2022-07-31T23:44:18.563Z,17.86
2022-07-31T23:49:29.747Z,17.96
2022-07-31T23:54:32.881Z,17.93
2022-07-31T23:59:35.727Z,18.23
